createdAt,value
2023-02-11T13:55:08.760Z,87.45
2023-02-11T13:57:41.305Z,87.45
2023-02-11T14:00:42.895Z,87.34
2023-02-11T14:03:50.831Z,87.52
2023-02-11T14:06:42.421Z,87.37
2023-02-11T14:09:19.550Z,87.50
2023-02-11T14:12:13.589Z,87.61
2023-02-11T14:15:03.815Z,87.44
2023-02-11T14:17:36.038Z,87.37
2023-02-11T14:20:26.621Z,87.55
2023-02-11T14:23:16.681Z,87.28
2023-02-11T14:26:02.089Z,87.21
2023-02-11T14:28:35.875Z,87.27
2023-02-11T14:31:13.692Z,87.12
2023-02-11T14:33:57.147Z,87.00
2023-02-11T14:36:40.294Z,87.26
2023-02-11T14:39:32.753Z,87.11
2023-02-11T14:42:03.760Z,86.91
2023-02-11T14:44:34.836Z,87.35
2023-02-11T14:47:06.442Z,87.28
2023-02-11T14:49:39.417Z,87.28
2023-02-11T14:52:32.401Z,87.20
2023-02-11T14:55:30.573Z,87.48
2023-02-11T14:58:14.270Z,87.35
2023-02-11T15:01:02.941Z,87.27
2023-02-11T15:03:41.116Z,87.06
2023-02-11T15:06:34.934Z,87.04
2023-02-11T15:09:09.045Z,87.11
2023-02-11T15:11:42.344Z,87.17
2023-02-11T15:14:16.166Z,87.16
2023-02-11T15:16:48.979Z,87.01
2023-02-11T15:19:23.181Z,87.15
2023-02-11T15:21:56.325Z,87.11
2023-02-11T15:24:34.517Z,87.10
2023-02-11T15:27:29.186Z,87.11
2023-02-11T15:30:00.142Z,87.32
2023-02-11T15:32:33.888Z,87.13
2023-02-11T15:35:04.728Z,87.09
2023-02-11T15:37:34.877Z,87.11
2023-02-11T15:40:12.581Z,87.22
2023-02-11T15:42:58.620Z,87.24
2023-02-11T15:45:31.858Z,87.38
2023-02-11T15:48:27.648Z,87.18
2023-02-11T15:51:03.094Z,87.17
2023-02-11T15:53:34.419Z,87.58
2023-02-11T15:56:09.283Z,87.13
2023-02-11T15:58:41.333Z,86.90
2023-02-11T16:01:15.576Z,87.33
2023-02-11T16:03:51.667Z,87.12
2023-02-11T16:06:28.351Z,87.03
2023-02-11T16:09:00.517Z,87.43
2023-02-11T16:11:54.657Z,87.44
2023-02-11T16:14:31.872Z,87.64
2023-02-11T16:17:24.478Z,87.48
2023-02-11T16:20:00.208Z,87.61
2023-02-11T16:22:39.066Z,87.52
2023-02-11T16:25:19.268Z,87.80
2023-02-11T16:27:52.774Z,87.68
2023-02-11T16:30:36.064Z,87.56
2023-02-11T16:33:09.554Z,87.56
2023-02-11T16:35:41.355Z,87.41
2023-02-11T16:38:16.904Z,87.52
2023-02-11T16:40:51.014Z,87.42
2023-02-11T16:43:28.662Z,87.44
2023-02-11T16:46:00.883Z,87.69
2023-02-11T16:48:34.688Z,87.72
2023-02-11T16:51:10.248Z,87.54
2023-02-11T16:53:43.070Z,87.51
2023-02-11T16:56:18.056Z,87.33
2023-02-11T16:58:50.208Z,87.42
2023-02-11T17:01:24.704Z,87.49
2023-02-11T17:03:56.520Z,87.57
2023-02-11T17:06:28.241Z,87.60
2023-02-11T17:09:03.924Z,87.43
2023-02-11T17:11:34.858Z,87.42
2023-02-11T17:14:05.688Z,87.22
2023-02-11T17:16:39.058Z,87.37
2023-02-11T17:19:13.494Z,87.63
2023-02-11T17:21:45.541Z,87.55
2023-02-11T17:24:16.056Z,87.45
2023-02-11T17:26:49.269Z,87.49
2023-02-11T17:29:23.753Z,87.52
2023-02-11T17:32:00.641Z,87.45
2023-02-11T17:34:35.254Z,87.53
2023-02-11T17:37:14.113Z,87.45
2023-02-11T17:39:45.358Z,87.17
2023-02-11T17:42:20.489Z,87.35
2023-02-11T17:44:53.400Z,87.07
2023-02-11T17:47:27.689Z,87.28
2023-02-11T17:49:59.538Z,87.29
2023-02-11T17:52:34.268Z,87.35
2023-02-11T17:55:07.311Z,86.99
2023-02-11T17:57:38.670Z,87.03
2023-02-11T18:00:10.469Z,87.28
2023-02-11T18:02:43.760Z,87.20
2023-02-11T18:05:16.438Z,87.32
2023-02-11T18:07:53.768Z,86.81
2023-02-11T18:10:25.350Z,87.02
2023-02-11T18:13:03.615Z,87.15
2023-02-11T18:15:36.230Z,87.10
2023-02-11T18:18:08.319Z,87.04
2023-02-11T18:20:46.795Z,86.87
2023-02-11T18:23:18.129Z,86.75
2023-02-11T18:25:51.261Z,86.94
2023-02-11T18:28:24.622Z,86.94
2023-02-11T18:30:59.568Z,86.86
2023-02-11T18:33:32.562Z,86.72
2023-02-11T18:36:12.862Z,86.79
2023-02-11T18:38:47.115Z,86.82
2023-02-11T18:41:22.526Z,86.74
2023-02-11T18:43:55.793Z,86.94
2023-02-11T18:46:25.813Z,86.93
2023-02-11T18:48:59.158Z,86.80
2023-02-11T18:51:54.281Z,86.76
2023-02-11T18:54:26.642Z,86.87
2023-02-11T18:57:03.456Z,86.87
2023-02-11T18:59:34.983Z,86.77
2023-02-11T19:02:16.395Z,86.87
2023-02-11T19:04:50.514Z,87.23
2023-02-11T19:07:25.134Z,86.98
2023-02-11T19:10:18.014Z,87.13
2023-02-11T19:12:57.802Z,87.29
2023-02-11T19:15:32.461Z,87.13
2023-02-11T19:18:06.618Z,86.97
2023-02-11T19:20:43.844Z,86.82
2023-02-11T19:23:15.994Z,86.72
2023-02-11T19:25:48.299Z,86.58
2023-02-11T19:28:19.841Z,86.43
2023-02-11T19:30:53.786Z,86.60
2023-02-11T19:33:28.284Z,86.39
2023-02-11T19:36:08.310Z,86.27
2023-02-11T19:38:42.954Z,86.00
2023-02-11T19:41:13.791Z,85.87
2023-02-11T19:43:59.906Z,85.77
2023-02-11T19:46:32.344Z,85.71
2023-02-11T19:49:09.196Z,85.52
2023-02-11T19:51:42.057Z,85.23
2023-02-11T19:54:16.293Z,85.17
2023-02-11T19:56:47.034Z,85.52
2023-02-11T19:59:22.533Z,85.52
2023-02-11T20:01:54.706Z,85.43
2023-02-11T20:04:28.635Z,85.65
2023-02-11T20:07:03.902Z,85.53
2023-02-11T20:09:36.281Z,85.31
2023-02-11T20:12:08.128Z,85.09
2023-02-11T20:14:39.085Z,85.08
2023-02-11T20:17:13.301Z,84.90
2023-02-11T20:19:45.872Z,84.75
2023-02-11T20:22:21.843Z,84.56
2023-02-11T20:24:52.830Z,84.47
2023-02-11T20:27:29.431Z,84.34
2023-02-11T20:30:00.857Z,84.42
2023-02-11T20:32:39.281Z,84.34
2023-02-11T20:35:13.190Z,84.48
2023-02-11T20:37:46.462Z,84.59
2023-02-11T20:40:19.266Z,84.66
2023-02-11T20:42:58.677Z,84.72
2023-02-11T20:45:31.018Z,84.61
2023-02-11T20:48:07.389Z,84.63
2023-02-11T20:50:42.426Z,84.77
2023-02-11T20:53:15.070Z,84.73
2023-02-11T20:55:49.493Z,84.73
2023-02-11T20:58:21.872Z,84.58
2023-02-11T21:01:01.537Z,84.51
2023-02-11T21:03:36.137Z,84.45
2023-02-11T21:06:11.829Z,84.06
2023-02-11T21:08:42.696Z,84.00
2023-02-11T21:11:17.481Z,84.00
2023-02-11T21:13:49.452Z,84.24
2023-02-11T21:16:22.601Z,84.16
2023-02-11T21:18:55.864Z,84.09
2023-02-11T21:21:28.785Z,84.19
2023-02-11T21:24:02.365Z,84.29
2023-02-11T21:26:35.585Z,84.21
2023-02-11T21:29:10.695Z,84.34
2023-02-11T21:35:18.324Z,84.13
2023-02-11T21:37:50.126Z,84.25
2023-02-11T21:40:27.715Z,84.13
2023-02-11T21:42:58.488Z,83.91
2023-02-11T21:45:31.444Z,84.16
2023-02-11T21:48:02.338Z,84.45
2023-02-11T21:50:35.629Z,84.39
2023-02-11T21:53:07.160Z,84.40
2023-02-11T21:55:39.194Z,84.30
2023-02-11T21:58:10.324Z,84.39
2023-02-11T22:00:41.212Z,84.24
2023-02-11T22:03:11.308Z,84.00
2023-02-11T22:05:41.962Z,83.75
2023-02-11T22:08:12.244Z,83.79
2023-02-11T22:10:41.571Z,84.05
2023-02-11T22:13:12.495Z,84.00
2023-02-11T22:15:42.046Z,83.87
2023-02-11T22:18:14.044Z,83.99
2023-02-11T22:20:45.230Z,84.30
2023-02-11T22:23:15.090Z,84.24
2023-02-11T22:25:46.814Z,84.53
2023-02-11T22:28:17.808Z,84.49
2023-02-11T22:30:46.847Z,84.52
2023-02-11T22:33:17.773Z,84.47
2023-02-11T22:35:49.114Z,84.60
2023-02-11T22:38:20.777Z,84.29
2023-02-11T22:40:52.394Z,84.14
2023-02-11T22:43:26.850Z,84.38
2023-02-11T22:46:01.970Z,84.36
2023-02-11T22:48:31.826Z,84.18
2023-02-11T22:51:08.054Z,84.56
2023-02-11T22:53:37.500Z,84.19
2023-02-11T22:56:09.565Z,84.40
2023-02-11T22:58:39.269Z,84.22
2023-02-11T23:01:11.101Z,84.43
2023-02-11T23:03:40.696Z,84.41
2023-02-11T23:06:12.526Z,84.26
2023-02-11T23:08:43.323Z,84.23
2023-02-11T23:11:16.072Z,84.02
2023-02-11T23:13:45.818Z,84.24
2023-02-11T23:16:25.935Z,84.28
2023-02-11T23:18:55.795Z,84.17
2023-02-11T23:21:26.372Z,84.26
2023-02-11T23:23:57.392Z,84.34
2023-02-11T23:26:46.196Z,84.49
2023-02-11T23:29:18.267Z,84.27
2023-02-11T23:31:47.855Z,84.35
2023-02-11T23:34:20.645Z,84.47
2023-02-11T23:36:50.094Z,84.50
2023-02-11T23:39:23.864Z,84.44
2023-02-11T23:41:59.263Z,84.52
2023-02-11T23:44:29.426Z,84.63
2023-02-11T23:47:00.445Z,84.62
2023-02-11T23:49:30.073Z,84.82
2023-02-11T23:52:00.608Z,84.78
2023-02-11T23:54:32.392Z,84.87
2023-02-11T23:57:05.171Z,84.63
2023-02-11T23:59:35.872Z,84.58
